Time;durP1;ratioP1;P1;durP2;ratioP2;P2;SDS_P1;SDS_P2;PMS_P1;PMS_P2;Temp;Humidity;BMP_temperature;BMP_pressure;BME280_temperature;BME280_humidity;BME280_pressure;Samples;Min_cycle;Max_cycle;Signal;HPM_P1;HPM_P2
2022/03/20 00:00:31;;;;;;;23.15;7.38;;;;;;;;;;5046314;28;20055;-80
2022/03/20 00:02:57;;;;;;;14.60;6.07;;;;;;;;;;5052446;28;20036;-79
2022/03/20 00:05:23;;;;;;;17.02;7.80;;;;;;;;;;5042576;28;20021;-79
2022/03/20 00:07:49;;;;;;;11.80;5.35;;;;;;;;;;5050214;28;20473;-79
2022/03/20 00:10:16;;;;;;;20.42;6.25;;;;;;;;;;5052470;28;20087;-80
2022/03/20 00:12:42;;;;;;;14.00;5.95;;;;;;;;;;5044579;28;20102;-79
2022/03/20 00:15:08;;;;;;;12.60;5.43;;;;;;;;;;5040090;28;20107;-79
2022/03/20 00:17:35;;;;;;;12.15;5.78;;;;;;;;;;5046359;28;20053;-80
2022/03/20 00:20:01;;;;;;;12.63;6.35;;;;;;;;;;5046644;28;20398;-79
2022/03/20 00:22:27;;;;;;;12.23;5.35;;;;;;;;;;5043965;28;20017;-79
2022/03/20 00:24:53;;;;;;;9.50;5.63;;;;;;;;;;5048386;28;20087;-79
2022/03/20 00:27:19;;;;;;;12.93;5.93;;;;;;;;;;5048937;28;20042;-79
2022/03/20 00:29:45;;;;;;;12.07;4.22;;;;;;;;;;5053844;28;20052;-79
2022/03/20 00:32:12;;;;;;;11.25;5.30;;;;;;;;;;5050053;28;20025;-79
2022/03/20 00:34:39;;;;;;;8.75;4.43;;;;;;;;;;5050640;28;20044;-79
2022/03/20 00:37:06;;;;;;;12.05;5.43;;;;;;;;;;5051703;28;20036;-78
2022/03/20 00:39:32;;;;;;;11.63;5.90;;;;;;;;;;5054889;28;20102;-79
2022/03/20 00:41:58;;;;;;;13.45;3.92;;;;;;;;;;5055216;28;20120;-80
2022/03/20 00:44:24;;;;;;;13.80;5.13;;;;;;;;;;5050367;28;20048;-79
2022/03/20 00:46:50;;;;;;;14.80;6.43;;;;;;;;;;5056645;28;20044;-80
2022/03/20 00:49:16;;;;;;;12.00;4.97;;;;;;;;;;5051742;28;20390;-79
2022/03/20 00:51:42;;;;;;;11.50;5.00;;;;;;;;;;5052909;28;20025;-79
2022/03/20 00:54:08;;;;;;;13.85;4.97;;;;;;;;;;5044138;28;20028;-79
2022/03/20 00:56:35;;;;;;;8.05;4.32;;;;;;;;;;5052307;28;20041;-79
2022/03/20 00:59:01;;;;;;;6.50;5.85;;;;;;;;;;5050519;28;20041;-79
2022/03/20 01:01:28;;;;;;;13.48;5.65;;;;;;;;;;5055294;28;20597;-80
2022/03/20 01:03:54;;;;;;;23.05;4.90;;;;;;;;;;5051692;28;20037;-79
2022/03/20 01:06:22;;;;;;;12.13;5.55;;;;;;;;;;5053138;28;20058;-78
2022/03/20 01:08:49;;;;;;;11.98;5.25;;;;;;;;;;5050577;28;20032;-79
2022/03/20 01:11:15;;;;;;;10.10;5.50;;;;;;;;;;5052854;28;20680;-80
2022/03/20 01:13:41;;;;;;;10.15;4.72;;;;;;;;;;5042370;28;20026;-79
2022/03/20 01:16:07;;;;;;;8.95;5.70;;;;;;;;;;5043779;28;20059;-79
2022/03/20 01:18:33;;;;;;;10.95;5.32;;;;;;;;;;5054759;28;20028;-80
2022/03/20 01:20:59;;;;;;;16.35;5.70;;;;;;;;;;5049907;28;20040;-79
2022/03/20 01:23:25;;;;;;;13.07;6.07;;;;;;;;;;5055441;28;20028;-79
2022/03/20 01:25:52;;;;;;;12.00;4.75;;;;;;;;;;5032910;28;20032;-80
2022/03/20 01:28:19;;;;;;;10.75;5.43;;;;;;;;;;5042840;28;20030;-79
2022/03/20 01:30:45;;;;;;;7.30;4.47;;;;;;;;;;5049716;28;20043;-79
2022/03/20 01:33:11;;;;;;;12.98;5.30;;;;;;;;;;5054330;28;20032;-78
2022/03/20 01:35:37;;;;;;;12.75;4.50;;;;;;;;;;5052474;28;20036;-79
2022/03/20 01:38:05;;;;;;;10.52;5.57;;;;;;;;;;5050082;28;20032;-78
2022/03/20 01:40:31;;;;;;;12.27;5.85;;;;;;;;;;5057785;28;20040;-79
2022/03/20 01:42:57;;;;;;;11.18;5.50;;;;;;;;;;5053244;28;20025;-80
2022/03/20 01:45:23;;;;;;;7.78;4.22;;;;;;;;;;5054777;28;20106;-79
2022/03/20 01:47:50;;;;;;;11.48;4.07;;;;;;;;;;5052175;28;20113;-79
2022/03/20 01:50:17;;;;;;;11.27;5.70;;;;;;;;;;5053459;28;20057;-79
2022/03/20 01:52:47;;;;;;;18.20;6.13;;;;;;;;;;5055849;28;20029;-79
2022/03/20 01:55:15;;;;;;;15.27;6.18;;;;;;;;;;5054322;28;20025;-81
2022/03/20 01:57:41;;;;;;;13.23;6.28;;;;;;;;;;5048868;28;20060;-79
2022/03/20 02:00:08;;;;;;;12.80;6.03;;;;;;;;;;5051234;28;20135;-80
2022/03/20 02:02:34;;;;;;;13.68;5.30;;;;;;;;;;5055072;28;20029;-79
2022/03/20 02:05:00;;;;;;;14.18;6.07;;;;;;;;;;5051327;28;20527;-79
2022/03/20 02:07:26;;;;;;;8.73;5.10;;;;;;;;;;5054821;28;20074;-80
2022/03/20 02:09:52;;;;;;;11.00;5.82;;;3.50;99.90;;;;;;5054543;28;20043;-79
2022/03/20 02:12:18;;;;;;;14.38;5.22;;;;;;;;;;5057888;28;20036;-80
2022/03/20 02:14:44;;;;;;;11.43;6.18;;;;;;;;;;5046851;28;20037;-79
2022/03/20 02:17:11;;;;;;;14.30;5.18;;;;;;;;;;5053069;28;20025;-79
2022/03/20 02:19:39;;;;;;;11.63;5.43;;;;;;;;;;5059574;28;20025;-79
2022/03/20 02:22:05;;;;;;;18.10;6.00;;;;;;;;;;5058099;28;20029;-79
2022/03/20 02:24:41;;;;;;;15.07;5.05;;;;;;;;;;5050930;28;20040;-79
2022/03/20 02:27:09;;;;;;;11.00;4.13;;;;;;;;;;5053177;28;20532;-79
2022/03/20 02:29:35;;;;;;;12.38;5.55;;;;;;;;;;5054398;28;20520;-78
2022/03/20 02:32:01;;;;;;;11.30;5.25;;;;;;;;;;5053801;28;20021;-79
2022/03/20 02:34:30;;;;;;;8.98;5.05;;;;;;;;;;5047365;28;20645;-79
2022/03/20 02:36:57;;;;;;;12.43;5.85;;;;;;;;;;5048177;28;20021;-80
2022/03/20 02:39:23;;;;;;;11.43;4.38;;;;;;;;;;5049605;28;20277;-79
2022/03/20 02:41:50;;;;;;;11.50;4.88;;;;;;;;;;5052823;28;20037;-78
2022/03/20 02:44:16;;;;;;;11.52;5.55;;;;;;;;;;5054636;28;20035;-80
2022/03/20 02:46:42;;;;;;;12.50;5.70;;;;;;;;;;5047940;28;20029;-80
2022/03/20 02:49:09;;;;;;;16.13;6.72;;;;;;;;;;5052760;28;20244;-79
2022/03/20 02:51:36;;;;;;;11.85;5.78;;;;;;;;;;5056180;28;20032;-80
2022/03/20 02:54:02;;;;;;;9.10;5.10;;;;;;;;;;5056430;28;20143;-79
2022/03/20 02:56:29;;;;;;;14.70;6.35;;;;;;;;;;5056305;28;20059;-79
2022/03/20 02:58:55;;;;;;;11.85;5.10;;;;;;;;;;5050713;28;20036;-79
2022/03/20 03:01:21;;;;;;;15.10;6.60;;;;;;;;;;5053187;28;20112;-79
2022/03/20 03:03:47;;;;;;;16.42;6.05;;;;;;;;;;5058142;28;20040;-80
2022/03/20 03:06:13;;;;;;;15.23;7.43;;;;;;;;;;5050986;28;20255;-80
2022/03/20 03:11:24;;;;;;;11.60;5.97;;;;;;;;;;5053134;28;20675;-79
2022/03/20 03:13:50;;;;;;;9.85;5.13;;;;;;;;;;5049016;28;20278;-79
2022/03/20 03:16:16;;;;;;;13.82;6.38;;;;;;;;;;5047843;28;20021;-79
2022/03/20 03:18:44;;;;;;;12.00;5.78;;;;;;;;;;5047713;28;20112;-79
2022/03/20 03:21:11;;;;;;;14.88;6.00;;;;;;;;;;5056115;28;20150;-79
2022/03/20 03:23:37;;;;;;;14.30;6.28;;;;;;;;;;5051060;28;20032;-79
2022/03/20 03:26:04;;;;;;;19.13;7.55;;;;;;;;;;5055531;28;20064;-79
2022/03/20 03:28:36;;;;;;;17.85;6.70;;;;;;;;;;5050582;28;20618;-79
2022/03/20 03:31:12;;;;;;;18.63;7.15;;;;;;;;;;5051509;28;20098;-79
2022/03/20 03:36:25;;;;;;;14.20;7.50;;;;;;;;;;5057271;28;20067;-79
2022/03/20 03:38:51;;;;;;;19.45;8.13;;;;;;;;;;5051664;28;20029;-79
2022/03/20 03:41:17;;;;;;;18.17;5.93;;;;;;;;;;5053569;28;20202;-79
2022/03/20 03:43:43;;;;;;;18.80;7.57;;;;;;;;;;5051215;28;20031;-79
2022/03/20 03:46:10;;;;;;;18.58;6.55;;;;;;;;;;5047865;28;20043;-79
2022/03/20 03:48:35;;;;;;;16.88;5.63;;;;;;;;;;5058636;28;20025;-79
2022/03/20 03:51:02;;;;;;;10.70;5.22;;;;;;;;;;5050771;28;20098;-79
2022/03/20 03:53:28;;;;;;;14.38;6.78;;;;;;;;;;5048305;28;20055;-79
2022/03/20 03:55:54;;;;;;;14.25;6.43;;;;;;;;;;5049611;28;20029;-79
2022/03/20 03:58:20;;;;;;;15.30;6.20;;;;;;;;;;5051944;28;20036;-79
2022/03/20 04:00:46;;;;;;;15.70;6.45;;;;;;;;;;5054591;28;20029;-79
2022/03/20 04:03:12;;;;;;;16.25;6.63;;;;;;;;;;5055720;28;20045;-79
2022/03/20 04:05:38;;;;;;;12.07;5.93;;;;;;;;;;5054231;28;20025;-79
2022/03/20 04:08:08;;;;;;;11.70;6.20;;;;;;;;;;5056362;28;20037;-79
2022/03/20 04:10:34;;;;;;;16.02;5.40;;;;;;;;;;5053167;28;20064;-80
2022/03/20 04:13:00;;;;;;;13.20;6.60;;;;;;;;;;5058757;28;20126;-79
2022/03/20 04:15:26;;;;;;;16.67;8.07;;;;;;;;;;5049272;28;20045;-79
2022/03/20 04:17:53;;;;;;;15.95;6.90;;;;;;;;;;5046206;28;20041;-79
2022/03/20 04:20:19;;;;;;;22.20;8.90;;;;;;;;;;5053871;28;20040;-80
2022/03/20 04:23:43;;;;;;;15.45;7.22;;;;;;;;;;5054479;28;20123;-79
2022/03/20 04:25:31;;;;;;;18.17;8.77;;;;;;;;;;5057473;28;20497;-79
2022/03/20 04:27:58;;;;;;;16.10;6.70;;;;;;;;;;5044186;28;20053;-80
2022/03/20 04:30:27;;;;;;;19.55;8.18;;;;;;;;;;5057488;28;20171;-80
2022/03/20 04:32:54;;;;;;;20.58;7.75;;;;;;;;;;5055833;28;20032;-79
2022/03/20 04:35:21;;;;;;;21.58;8.32;;;;;;;;;;5048804;28;20574;-79
2022/03/20 04:37:48;;;;;;;13.63;7.72;;;;;;;;;;5052081;28;20029;-80
2022/03/20 04:40:14;;;;;;;17.92;8.45;;;;;;;;;;5055416;28;20072;-78
2022/03/20 04:42:40;;;;;;;26.27;10.10;;;;;;;;;;5053040;28;20025;-80
2022/03/20 04:45:06;;;;;;;25.20;8.50;;;;;;;;;;5053930;28;20029;-80
2022/03/20 04:58:31;;;;;;;17.05;7.50;;;;;;;;;;5053427;28;20039;-80
2022/03/20 05:00:57;;;;;;;15.48;7.75;;;;;;;;;;5051784;28;20029;-79
2022/03/20 05:03:24;;;;;;;25.63;9.57;;;;;;;;;;5043297;28;20389;-79
2022/03/20 05:05:50;;;;;;;17.60;8.23;;;;;;;;;;5050360;28;20071;-79
2022/03/20 05:08:16;;;;;;;18.27;9.45;;;;;;;;;;5055964;28;20025;-80
2022/03/20 05:13:27;;;;;;;18.23;8.35;;;;;;;;;;5049795;28;20044;-80
2022/03/20 05:15:56;;;;;;;23.92;10.75;;;;;;;;;;5054561;28;20029;-79
2022/03/20 05:18:22;;;;;;;21.15;9.50;;;;;;;;;;5053013;28;20017;-81
2022/03/20 05:20:48;;;;;;;27.23;8.98;;;;;;;;;;5050947;28;20043;-80
2022/03/20 05:23:14;;;;;;;19.15;8.32;;;;;;;;;;5049633;28;20036;-80
2022/03/20 05:25:40;;;;;;;26.63;8.93;;;;;;;;;;5058087;28;20028;-79
2022/03/20 05:28:06;;;;;;;19.40;8.82;;;;;;;;;;5053283;28;20037;-79
2022/03/20 05:30:33;;;;;;;22.88;9.02;;;;;;;;;;5055801;28;20134;-79
2022/03/20 05:32:59;;;;;;;20.48;8.43;;;;;;;;;;5057552;28;20088;-79
2022/03/20 05:35:25;;;;;;;26.25;8.68;;;;;;;;;;5051647;28;20168;-80
2022/03/20 05:37:52;;;;;;;20.30;8.65;;;;;;;;;;5058824;28;20476;-79
2022/03/20 05:40:18;;;;;;;21.70;8.85;;;;;;;;;;5053697;28;20033;-79
2022/03/20 05:42:44;;;;;;;23.40;10.65;;;;;;;;;;5053811;28;20028;-79
2022/03/20 05:45:10;;;;;;;14.80;7.72;;;;;;;;;;5055678;28;20031;-79
2022/03/20 05:47:37;;;;;;;33.15;9.20;;;;;;;;;;5059801;28;20052;-80
2022/03/20 05:50:03;;;;;;;18.08;8.23;;;;;;;;;;5050787;28;20033;-80
2022/03/20 05:52:31;;;;;;;20.73;8.73;;;;;;;;;;5058629;28;20097;-80
2022/03/20 05:54:57;;;;;;;17.70;9.23;;;;;;;;;;5054488;28;20487;-80
2022/03/20 06:00:16;;;;;;;20.08;7.65;;;;;;;;;;5049779;28;20052;-81
2022/03/20 06:02:43;;;;;;;20.70;8.40;;;;;;;;;;5052123;28;20029;-80
2022/03/20 06:05:09;;;;;;;20.05;9.02;;;;;;;;;;5059673;28;20140;-79
2022/03/20 06:07:46;;;;;;;23.08;8.40;;;5.90;99.90;;;;;;5061072;28;20091;-79
2022/03/20 06:10:13;;;;;;;27.10;9.27;;;;;;;;;;5055392;28;20047;-79
2022/03/20 06:12:39;;;;;;;20.45;8.18;;;;;;;;;;5054105;28;20085;-80
2022/03/20 06:15:08;;;;;;;26.75;10.73;;;5.90;99.90;;;;;;5060332;28;20036;-79
2022/03/20 06:17:36;;;;;;;19.95;8.65;;;;;;;;;;5061023;28;20025;-80
2022/03/20 06:20:02;;;;;;;20.73;8.43;;;;;;;;;;5060215;28;20048;-80
2022/03/20 06:22:28;;;;;;;24.00;9.88;;;;;;;;;;5058166;28;20028;-80
2022/03/20 06:24:54;;;;;;;22.75;9.88;;;;;;;;;;5058506;28;20029;-81
2022/03/20 06:27:20;;;;;;;18.73;8.35;;;;;;;;;;5045612;28;20071;-80
2022/03/20 06:29:45;;;;;;;21.08;8.07;;;;;;;;;;5054982;28;20082;-82
2022/03/20 06:32:11;;;;;;;20.15;9.70;;;;;;;;;;5057013;28;20029;-80
2022/03/20 06:34:37;;;;;;;20.45;9.25;;;;;;;;;;5056125;28;20017;-81
2022/03/20 06:37:03;;;;;;;24.98;8.93;;;;;;;;;;5052870;28;20232;-82
2022/03/20 06:39:29;;;;;;;20.88;8.57;;;;;;;;;;5052594;28;20025;-81
2022/03/20 06:41:56;;;;;;;20.85;9.27;;;;;;;;;;5056309;28;20196;-81
2022/03/20 06:44:22;;;;;;;19.08;7.65;;;;;;;;;;5053764;28;20063;-80
2022/03/20 06:46:57;;;;;;;21.17;9.82;;;;;;;;;;5065074;28;20414;-79
2022/03/20 06:49:23;;;;;;;21.85;10.20;;;;;;;;;;5068675;28;20525;-80
2022/03/20 06:51:49;;;;;;;19.85;8.27;;;;;;;;;;5071350;28;20032;-81
2022/03/20 06:54:15;;;;;;;21.45;9.23;;;;;;;;;;5059415;28;20112;-80
2022/03/20 06:56:41;;;;;;;22.75;9.05;;;;;;;;;;5057726;28;20021;-80
2022/03/20 06:59:08;;;;;;;18.25;8.70;;;;;;;;;;5061865;28;20057;-80
2022/03/20 07:01:34;;;;;;;25.48;9.68;;;;;;;;;;5061556;28;20365;-80
2022/03/20 07:04:00;;;;;;;23.75;9.77;;;;;;;;;;5059478;28;20033;-81
2022/03/20 07:06:28;;;;;;;24.65;9.10;;;;;;;;;;5064445;28;20736;-81
2022/03/20 07:09:00;;;;;;;19.60;9.60;;;;;;;;;;5063576;28;20068;-79
2022/03/20 07:11:32;;;;;;;23.92;9.70;;;;;;;;;;5063667;28;20029;-80
2022/03/20 07:13:58;;;;;;;23.17;9.10;;;;;;;;;;5052598;28;20060;-78
2022/03/20 07:16:29;;;;;;;15.88;7.82;;;;;;;;;;5044305;28;20060;-79
2022/03/20 07:18:55;;;;;;;21.25;10.45;;;;;;;;;;5052788;28;20047;-80
2022/03/20 07:21:23;;;;;;;21.75;9.48;;;;;;;;;;5057960;28;20052;-81
2022/03/20 07:23:51;;;;;;;20.42;8.43;;;;;;;;;;5059948;28;20025;-81
2022/03/20 07:31:48;;;;;;;22.80;9.20;;;;;;;;;;5066243;28;20563;-82
2022/03/20 07:34:14;;;;;;;27.90;7.30;;;;;;;;;;5058530;28;20025;-81
2022/03/20 07:36:40;;;;;;;21.30;7.43;;;;;;;;;;5053033;28;20062;-83
2022/03/20 07:39:06;;;;;;;17.70;7.20;;;;;;;;;;5047905;28;20497;-77
2022/03/20 07:41:33;;;;;;;17.65;7.57;;;;;;;;;;5039267;28;20037;-80
2022/03/20 07:43:59;;;;;;;22.33;8.77;;;;;;;;;;5052144;28;20029;-81
2022/03/20 07:46:25;;;;;;;17.05;8.30;;;;;;;;;;5059135;28;21218;-80
2022/03/20 07:48:51;;;;;;;24.00;8.43;;;;;;;;;;5064016;28;20163;-80
2022/03/20 07:51:20;;;;;;;22.70;10.45;;;7.80;99.80;;;;;;5064354;28;20032;-80
2022/03/20 07:53:46;;;;;;;16.55;8.55;;;;;;;;;;5072039;28;20039;-80
2022/03/20 07:56:12;;;;;;;15.88;8.63;;;;;;;;;;5072447;28;20028;-80
2022/03/20 07:58:38;;;;;;;15.00;7.93;;;;;;;;;;5046215;28;20038;-80
2022/03/20 08:01:04;;;;;;;21.15;8.63;;;;;;;;;;5043016;28;20025;-80
2022/03/20 08:03:30;;;;;;;21.70;7.68;;;;;;;;;;5035832;28;20047;-80
2022/03/20 08:05:57;;;;;;;18.17;8.35;;;;;;;;;;5033527;28;20579;-80
2022/03/20 08:08:23;;;;;;;15.80;7.13;;;;;;;;;;5041156;28;20493;-81
2022/03/20 08:10:49;;;;;;;17.52;9.18;;;;;;;;;;5049266;28;20036;-80
2022/03/20 08:13:15;;;;;;;17.67;8.45;;;;;;;;;;5036261;28;20148;-81
2022/03/20 08:15:41;;;;;;;16.73;6.82;;;;;;;;;;5045045;28;20029;-80
2022/03/20 08:18:07;;;;;;;18.73;9.52;;;;;;;;;;5046381;28;20063;-80
2022/03/20 08:20:33;;;;;;;19.92;8.40;;;;;;;;;;5048419;28;20033;-79
2022/03/20 08:23:00;;;;;;;20.05;8.25;;;;;;;;;;5048848;28;20079;-80
2022/03/20 08:25:26;;;;;;;19.77;7.97;;;;;;;;;;5038368;28;20041;-81
2022/03/20 08:27:56;;;;;;;17.10;8.57;;;;;;;;;;5043445;28;20028;-80
2022/03/20 08:30:22;;;;;;;19.63;8.38;;;;;;;;;;5042007;28;20032;-81
2022/03/20 08:32:48;;;;;;;22.88;8.60;;;;;;;;;;5036974;28;20101;-80
2022/03/20 08:35:19;;;;;;;18.25;8.13;;;;;;;;;;5046224;28;20028;-80
2022/03/20 08:37:46;;;;;;;23.95;9.80;;;10.90;92.00;;;;;;5040854;28;20114;-81
2022/03/20 08:40:15;;;;;;;24.52;9.82;;;;;;;;;;5045730;28;20032;-80
2022/03/20 08:42:45;;;;;;;22.63;9.85;;;;;;;;;;5040423;28;20076;-80
2022/03/20 08:45:12;;;;;;;25.33;9.55;;;;;;;;;;5041743;28;20100;-81
2022/03/20 08:47:38;;;;;;;21.95;10.00;;;;;;;;;;5049626;28;20021;-79
2022/03/20 08:50:04;;;;;;;19.33;9.35;;;;;;;;;;5041291;28;20029;-80
2022/03/20 08:52:30;;;;;;;15.13;6.65;;;;;;;;;;5046075;28;20517;-80
2022/03/20 08:54:56;;;;;;;20.15;9.13;;;;;;;;;;5044525;28;20061;-80
2022/03/20 08:57:25;;;;;;;18.27;9.75;;;;;;;;;;5044242;28;20013;-80
2022/03/20 08:59:52;;;;;;;17.25;8.13;;;;;;;;;;5039346;28;20035;-80
2022/03/20 09:02:18;;;;;;;22.48;8.70;;;;;;;;;;5034745;28;20736;-80
2022/03/20 09:04:44;;;;;;;20.90;9.55;;;;;;;;;;5022726;28;20104;-81
2022/03/20 09:07:10;;;;;;;21.23;7.97;;;;;;;;;;5030634;28;20736;-79
2022/03/20 09:09:36;;;;;;;16.98;8.07;;;;;;;;;;5048081;28;20021;-80
2022/03/20 09:12:02;;;;;;;17.77;8.43;;;;;;;;;;5046034;28;20086;-80
2022/03/20 09:14:28;;;;;;;18.40;8.27;;;;;;;;;;5036244;28;20094;-79
2022/03/20 09:19:39;;;;;;;15.80;7.50;;;;;;;;;;5032640;28;20083;-78
2022/03/20 09:22:06;;;;;;;14.30;8.07;;;;;;;;;;5036919;28;20049;-79
2022/03/20 09:24:33;;;;;;;19.30;8.98;;;;;;;;;;5035599;28;20026;-78
2022/03/20 09:27:00;;;;;;;17.83;8.02;;;;;;;;;;5046800;28;20462;-78
2022/03/20 09:29:26;;;;;;;22.17;9.13;;;;;;;;;;5041665;28;20026;-78
2022/03/20 09:31:52;;;;;;;19.95;9.27;;;;;;;;;;5040840;28;20110;-78
2022/03/20 09:34:18;;;;;;;17.63;8.50;;;;;;;;;;5038302;28;20221;-79
2022/03/20 09:36:44;;;;;;;19.65;9.23;;;;;;;;;;5043626;28;20386;-78
2022/03/20 09:39:10;;;;;;;20.95;9.45;;;;;;;;;;5043287;28;20101;-78
2022/03/20 09:41:38;;;;;;;17.85;8.25;;;;;;;;;;5046987;28;20057;-78
2022/03/20 09:44:05;;;;;;;19.33;9.52;;;12.80;83.50;;;;;;5039365;28;20045;-78
2022/03/20 09:46:31;;;;;;;23.65;8.35;;;;;;;;;;5056329;28;20044;-78
2022/03/20 09:48:58;;;;;;;20.30;9.38;;;;;;;;;;5044913;28;20026;-79
2022/03/20 09:51:24;;;;;;;17.05;7.93;;;;;;;;;;5041392;28;20026;-78
2022/03/20 09:53:50;;;;;;;24.23;8.98;;;;;;;;;;5043228;28;20037;-78
2022/03/20 09:56:16;;;;;;;20.98;9.38;;;;;;;;;;5042908;28;20053;-79
2022/03/20 09:58:42;;;;;;;18.38;8.32;;;;;;;;;;5039427;28;20029;-78
2022/03/20 10:01:08;;;;;;;21.42;8.88;;;13.00;83.50;;;;;;5053694;28;20033;-77
2022/03/20 10:03:34;;;;;;;18.42;8.18;;;;;;;;;;5049419;28;20509;-78
2022/03/20 10:06:05;;;;;;;21.75;10.05;;;;;;;;;;5044306;28;20087;-77
2022/03/20 10:08:31;;;;;;;22.63;8.38;;;;;;;;;;5041970;28;20036;-77
2022/03/20 10:11:12;;;;;;;18.77;7.95;;;;;;;;;;5048043;28;20036;-77
2022/03/20 10:13:38;;;;;;;19.08;9.52;;;;;;;;;;5043112;28;20991;-77
2022/03/20 10:16:25;;;;;;;17.50;9.13;;;;;;;;;;5047779;28;20017;-77
2022/03/20 10:18:50;;;;;;;22.77;8.95;;;;;;;;;;5042549;28;20973;-78
2022/03/20 10:21:19;;;;;;;22.23;8.82;;;;;;;;;;5037029;28;20033;-78
2022/03/20 10:23:46;;;;;;;19.48;9.57;;;;;;;;;;5046997;28;20120;-78
2022/03/20 10:26:18;;;;;;;22.63;10.70;;;;;;;;;;5040187;28;20104;-78
2022/03/20 10:28:45;;;;;;;17.58;8.77;;;;;;;;;;5037819;28;20056;-78
2022/03/20 10:31:15;;;;;;;29.48;9.25;;;;;;;;;;5038651;28;20032;-77
2022/03/20 10:33:41;;;;;;;21.40;8.85;;;;;;;;;;5045128;28;20550;-77
2022/03/20 10:36:10;;;;;;;21.23;9.38;;;;;;;;;;5040669;28;20040;-78
2022/03/20 10:38:36;;;;;;;18.45;8.10;;;;;;;;;;5041917;28;20039;-78
2022/03/20 10:41:15;;;;;;;19.95;8.55;;;;;;;;;;5050799;28;20033;-77
2022/03/20 10:43:42;;;;;;;14.93;7.78;;;;;;;;;;5037281;28;20021;-77
2022/03/20 10:46:08;;;;;;;20.33;9.98;;;;;;;;;;5044361;28;20033;-77
2022/03/20 10:48:34;;;;;;;17.00;7.90;;;;;;;;;;5044989;28;20040;-78
2022/03/20 10:51:00;;;;;;;16.90;7.68;;;;;;;;;;5045099;28;20619;-78
2022/03/20 10:53:27;;;;;;;18.40;8.25;;;;;;;;;;5036851;28;20021;-77
2022/03/20 10:55:55;;;;;;;18.80;8.93;;;;;;;;;;5029958;28;20029;-78
2022/03/20 10:58:26;;;;;;;19.02;8.73;;;;;;;;;;5041015;28;20045;-78
2022/03/20 11:00:52;;;;;;;18.98;9.18;;;;;;;;;;5037493;28;20052;-78
2022/03/20 11:03:22;;;;;;;21.10;9.73;;;;;;;;;;5039941;28;20021;-78
2022/03/20 11:05:48;;;;;;;15.98;7.90;;;;;;;;;;5040859;28;20126;-77
2022/03/20 11:08:14;;;;;;;19.27;9.93;;;;;;;;;;5044404;28;20033;-77
2022/03/20 11:10:44;;;;;;;17.80;7.82;;;;;;;;;;5042969;28;20598;-77
2022/03/20 11:13:11;;;;;;;19.00;9.20;;;;;;;;;;5051122;28;20082;-79
2022/03/20 11:15:37;;;;;;;16.65;7.35;;;;;;;;;;5046424;28;20038;-79
2022/03/20 11:18:04;;;;;;;20.92;8.18;;;;;;;;;;5036625;28;20056;-81
2022/03/20 11:20:30;;;;;;;21.17;9.40;;;;;;;;;;5033834;28;20041;-80
2022/03/20 11:22:59;;;;;;;19.30;8.27;;;14.70;73.70;;;;;;5047068;28;20864;-80
2022/03/20 11:25:26;;;;;;;19.33;8.63;;;;;;;;;;5046440;28;20044;-80
2022/03/20 11:28:01;;;;;;;20.20;8.15;;;;;;;;;;5041945;28;20057;-79
2022/03/20 11:30:28;;;;;;;19.20;8.65;;;15.80;76.30;;;;;;5038774;28;20081;-81
2022/03/20 11:32:57;;;;;;;19.90;9.40;;;;;;;;;;5038246;28;20029;-80
2022/03/20 11:35:28;;;;;;;17.02;8.00;;;;;;;;;;5024750;28;20592;-79
2022/03/20 11:37:58;;;;;;;22.17;8.25;;;;;;;;;;5030142;28;20037;-80
2022/03/20 11:40:25;;;;;;;16.60;7.15;;;;;;;;;;5027203;28;20041;-81
2022/03/20 11:43:11;;;;;;;17.52;8.07;;;;;;;;;;5044309;28;20040;-80
2022/03/20 11:45:38;;;;;;;18.75;9.13;;;;;;;;;;5050310;28;20042;-82
2022/03/20 11:48:14;;;;;;;17.02;7.90;;;;;;;;;;5038286;28;20044;-80
2022/03/20 11:50:41;;;;;;;17.63;8.32;;;;;;;;;;5049492;28;20148;-81
2022/03/20 11:53:09;;;;;;;22.90;10.10;;;;;;;;;;5043654;28;20033;-80
2022/03/20 11:55:36;;;;;;;18.52;8.68;;;;;;;;;;5042299;28;20037;-80
2022/03/20 11:58:08;;;;;;;16.58;8.07;;;16.00;71.30;;;;;;5034791;28;20048;-80
2022/03/20 12:00:36;;;;;;;19.02;8.35;;;;;;;;;;5040587;28;20028;-81
2022/03/20 12:03:22;;;;;;;15.48;7.10;;;;;;;;;;5034672;28;20038;-80
2022/03/20 12:05:54;;;;;;;15.85;8.60;;;;;;;;;;5040727;28;20045;-81
2022/03/20 12:08:35;;;;;;;15.40;8.35;;;;;;;;;;5039983;28;20021;-81
2022/03/20 12:11:26;;;;;;;15.25;7.90;;;;;;;;;;5037219;28;20037;-84
2022/03/20 12:14:10;;;;;;;18.58;8.63;;;;;;;;;;5044545;28;20063;-83
2022/03/20 12:16:48;;;;;;;14.63;7.70;;;;;;;;;;5038816;28;20037;-79
2022/03/20 12:19:17;;;;;;;19.08;8.55;;;;;;;;;;5039454;28;20033;-79
2022/03/20 12:21:52;;;;;;;17.13;8.48;;;;;;;;;;5031620;28;20095;-81
2022/03/20 12:24:41;;;;;;;15.48;7.55;;;16.20;66.70;;;;;;5043490;28;20035;-81
2022/03/20 12:27:24;;;;;;;19.55;7.65;;;15.80;67.80;;;;;;5039926;28;20103;-79
2022/03/20 12:29:53;;;;;;;17.05;8.10;;;;;;;;;;5050426;28;20024;-81
2022/03/20 12:32:20;;;;;;;18.10;7.50;;;;;;;;;;5049133;28;20116;-80
2022/03/20 12:35:06;;;;;;;17.35;8.63;;;;;;;;;;5035313;28;20065;-80
2022/03/20 12:37:33;;;;;;;17.63;8.30;;;;;;;;;;5018472;28;21825;-80
2022/03/20 12:40:25;;;;;;;15.18;7.20;;;;;;;;;;5025018;28;20033;-82
2022/03/20 12:42:59;;;;;;;17.17;6.82;;;;;;;;;;5019935;28;20140;-81
2022/03/20 12:45:26;;;;;;;20.55;8.25;;;;;;;;;;5030189;28;20051;-80
2022/03/20 12:47:54;;;;;;;17.63;8.35;;;;;;;;;;5043928;28;20025;-81
2022/03/20 12:50:22;;;;;;;19.20;8.68;;;;;;;;;;5038888;28;20029;-81
2022/03/20 12:52:49;;;;;;;18.95;7.72;;;;;;;;;;5044134;28;20075;-82
2022/03/20 12:55:15;;;;;;;18.67;7.57;;;;;;;;;;5046837;28;20029;-81
2022/03/20 12:57:41;;;;;;;18.67;7.88;;;;;;;;;;5040157;28;20098;-81
2022/03/20 13:00:08;;;;;;;18.48;9.27;;;;;;;;;;5041956;28;20044;-80
2022/03/20 13:02:34;;;;;;;19.00;6.88;;;;;;;;;;5033511;28;20048;-81
2022/03/20 13:05:18;;;;;;;18.92;8.18;;;;;;;;;;5044958;28;20106;-81
2022/03/20 13:07:44;;;;;;;19.75;8.50;;;;;;;;;;5041608;28;20047;-82
2022/03/20 13:10:13;;;;;;;15.88;8.30;;;;;;;;;;5038566;28;20462;-81
2022/03/20 13:12:58;;;;;;;17.92;9.30;;;;;;;;;;5052502;28;20025;-80
2022/03/20 13:15:37;;;;;;;17.65;7.10;;;;;;;;;;5038110;28;20110;-80
2022/03/20 13:18:05;;;;;;;16.45;7.70;;;;;;;;;;5026651;28;20033;-80
2022/03/20 13:20:32;;;;;;;19.85;7.47;;;;;;;;;;5037274;28;20032;-80
2022/03/20 13:23:05;;;;;;;18.20;8.23;;;;;;;;;;5030675;28;20038;-80
2022/03/20 13:25:31;;;;;;;25.10;10.53;;;;;;;;;;5035281;28;20037;-80
2022/03/20 13:27:57;;;;;;;19.98;7.85;;;;;;;;;;5024635;28;20087;-82
2022/03/20 13:30:32;;;;;;;13.98;7.03;;;;;;;;;;5027883;28;20722;-81
2022/03/20 13:32:59;;;;;;;19.08;5.97;;;;;;;;;;5034895;28;20033;-80
2022/03/20 13:35:25;;;;;;;14.65;6.45;;;;;;;;;;5029396;28;20025;-80
2022/03/20 13:37:56;;;;;;;17.42;7.80;;;;;;;;;;5030976;28;20025;-81
2022/03/20 13:40:23;;;;;;;15.77;7.63;;;;;;;;;;5031979;28;20033;-81
2022/03/20 13:42:49;;;;;;;16.00;7.53;;;;;;;;;;5029295;28;20460;-82
2022/03/20 13:45:15;;;;;;;14.00;7.25;;;;;;;;;;5034576;28;20083;-80
2022/03/20 13:47:41;;;;;;;20.33;8.32;;;;;;;;;;5041314;28;20075;-80
2022/03/20 13:50:07;;;;;;;18.38;6.45;;;;;;;;;;5037635;28;20236;-81
2022/03/20 13:52:37;;;;;;;13.00;6.25;;;;;;;;;;5043315;28;20040;-80
2022/03/20 13:55:06;;;;;;;17.33;7.40;;;;;;;;;;5049075;28;20029;-81
2022/03/20 13:57:32;;;;;;;12.27;5.65;;;;;;;;;;5042366;28;20033;-80
2022/03/20 14:00:03;;;;;;;16.17;6.70;;;;;;;;;;5051196;28;20028;-80
2022/03/20 14:02:39;;;;;;;15.65;7.03;;;;;;;;;;5052549;28;20048;-80
2022/03/20 14:05:10;;;;;;;15.02;6.65;;;;;;;;;;5060801;28;20024;-81
2022/03/20 14:07:37;;;;;;;11.73;5.75;;;;;;;;;;5056728;28;20123;-80
2022/03/20 14:10:15;;;;;;;14.13;5.70;;;;;;;;;;5045103;28;20030;-80
2022/03/20 14:12:42;;;;;;;17.52;6.45;;;;;;;;;;5043346;28;20053;-79
2022/03/20 14:15:09;;;;;;;11.45;5.38;;;;;;;;;;5044700;28;20032;-79
2022/03/20 14:17:52;;;;;;;11.90;5.47;;;;;;;;;;5044317;28;20029;-80
2022/03/20 14:20:29;;;;;;;9.43;5.85;;;;;;;;;;5041726;28;20033;-81
2022/03/20 14:22:57;;;;;;;16.45;6.68;;;;;;;;;;5046174;28;20060;-80
2022/03/20 14:25:34;;;;;;;15.52;7.20;;;;;;;;;;5040690;28;20040;-80
2022/03/20 14:28:04;;;;;;;16.48;8.38;;;;;;;;;;5037356;28;20032;-80
2022/03/20 14:41:35;;;;;;;15.02;6.85;;;;;;;;;;5033292;28;20508;-80
2022/03/20 14:44:07;;;;;;;15.15;7.93;;;;;;;;;;5033606;28;20025;-80
2022/03/20 14:46:33;;;;;;;21.15;9.48;;;16.40;66.30;;;;;;5037541;28;20690;-80
2022/03/20 14:49:00;;;;;;;16.52;7.93;;;;;;;;;;5043661;28;20018;-79
2022/03/20 14:51:27;;;;;;;16.98;7.28;;;;;;;;;;5037631;28;20033;-80
2022/03/20 14:53:53;;;;;;;16.48;8.05;;;;;;;;;;5041040;28;20021;-79
2022/03/20 14:56:19;;;;;;;15.68;6.88;;;;;;;;;;5049036;28;20025;-80
2022/03/20 14:58:45;;;;;;;13.85;6.82;;;;;;;;;;5035119;28;20330;-80
2022/03/20 15:01:11;;;;;;;17.35;7.88;;;;;;;;;;5044133;28;20033;-80
2022/03/20 15:03:38;;;;;;;17.23;7.30;;;;;;;;;;5046295;28;20060;-80
2022/03/20 15:06:06;;;;;;;17.35;7.45;;;;;;;;;;5041959;28;20044;-80
2022/03/20 15:11:26;;;;;;;17.17;6.50;;;;;;;;;;5051123;28;20048;-80
2022/03/20 15:14:00;;;;;;;16.73;7.43;;;15.20;65.60;;;;;;5046121;28;20033;-81